sensor_id;sensor_type;location;lat;lon;timestamp;pressure;altitude;pressure_sealevel;temperature;humidity
24336;BME280;33098;52.400;16.880;2022-10-16T00:01:36;100580.94;;;14.31;100.00
24336;BME280;33098;52.400;16.880;2022-10-16T00:04:03;100579.35;;;14.31;100.00
24336;BME280;33098;52.400;16.880;2022-10-16T00:06:30;100575.33;;;14.34;100.00
24336;BME280;33098;52.400;16.880;2022-10-16T00:09:02;100565.80;;;14.29;100.00
24336;BME280;33098;52.400;16.880;2022-10-16T00:11:34;100554.32;;;14.27;100.00
24336;BME280;33098;52.400;16.880;2022-10-16T00:14:05;100555.77;;;14.31;100.00
24336;BME280;33098;52.400;16.880;2022-10-16T00:16:34;100556.72;;;14.28;100.00
24336;BME280;33098;52.400;16.880;2022-10-16T00:19:02;100559.57;;;14.29;100.00
24336;BME280;33098;52.400;16.880;2022-10-16T00:21:33;100557.25;;;14.30;100.00
24336;BME280;33098;52.400;16.880;2022-10-16T00:24:06;100558.28;;;14.29;100.00
24336;BME280;33098;52.400;16.880;2022-10-16T00:26:35;100562.95;;;14.32;100.00
24336;BME280;33098;52.400;16.880;2022-10-16T00:29:03;100559.77;;;14.36;100.00
24336;BME280;33098;52.400;16.880;2022-10-16T00:31:33;100569.68;;;14.35;100.00
24336;BME280;33098;52.400;16.880;2022-10-16T00:34:03;100577.27;;;14.36;100.00
24336;BME280;33098;52.400;16.880;2022-10-16T00:36:31;100581.24;;;14.35;100.00
24336;BME280;33098;52.400;16.880;2022-10-16T00:39:02;100581.77;;;14.33;100.00
24336;BME280;33098;52.400;16.880;2022-10-16T00:41:32;100583.29;;;14.38;100.00
24336;BME280;33098;52.400;16.880;2022-10-16T00:44:02;100583.06;;;14.43;100.00
24336;BME280;33098;52.400;16.880;2022-10-16T00:46:40;100576.24;;;14.49;100.00
24336;BME280;33098;52.400;16.880;2022-10-16T00:51:47;100572.63;;;14.51;100.00
24336;BME280;33098;52.400;16.880;2022-10-16T00:54:19;100571.20;;;14.53;100.00
24336;BME280;33098;52.400;16.880;2022-10-16T00:56:51;100572.45;;;14.55;100.00
24336;BME280;33098;52.400;16.880;2022-10-16T00:59:23;100574.02;;;14.50;100.00
24336;BME280;33098;52.400;16.880;2022-10-16T01:01:56;100573.61;;;14.48;100.00
24336;BME280;33098;52.400;16.880;2022-10-16T01:04:25;100576.61;;;14.49;100.00
24336;BME280;33098;52.400;16.880;2022-10-16T01:09:44;100578.19;;;14.49;100.00
24336;BME280;33098;52.400;16.880;2022-10-16T01:15:15;100581.67;;;14.56;100.00
24336;BME280;33098;52.400;16.880;2022-10-16T01:20:13;100587.81;;;14.59;100.00
24336;BME280;33098;52.400;16.880;2022-10-16T01:28:24;100579.95;;;14.80;100.00
24336;BME280;33098;52.400;16.880;2022-10-16T01:30:58;100578.61;;;14.83;100.00
24336;BME280;33098;52.400;16.880;2022-10-16T01:33:33;100579.48;;;14.85;100.00
24336;BME280;33098;52.400;16.880;2022-10-16T01:36:10;100583.63;;;14.83;100.00
24336;BME280;33098;52.400;16.880;2022-10-16T01:38:39;100582.15;;;14.81;100.00
24336;BME280;33098;52.400;16.880;2022-10-16T01:41:12;100581.35;;;14.77;100.00
24336;BME280;33098;52.400;16.880;2022-10-16T01:44:22;100580.43;;;14.75;100.00
24336;BME280;33098;52.400;16.880;2022-10-16T01:46:50;100592.30;;;14.74;100.00
24336;BME280;33098;52.400;16.880;2022-10-16T01:49:20;100591.02;;;14.73;100.00
24336;BME280;33098;52.400;16.880;2022-10-16T01:51:49;100595.52;;;14.68;100.00
24336;BME280;33098;52.400;16.880;2022-10-16T01:54:23;100598.15;;;14.65;100.00
24336;BME280;33098;52.400;16.880;2022-10-16T01:56:53;100600.20;;;14.68;100.00
24336;BME280;33098;52.400;16.880;2022-10-16T01:59:24;100597.05;;;14.71;100.00
24336;BME280;33098;52.400;16.880;2022-10-16T02:02:00;100597.02;;;14.77;100.00
24336;BME280;33098;52.400;16.880;2022-10-16T02:04:32;100593.73;;;14.78;100.00
24336;BME280;33098;52.400;16.880;2022-10-16T02:07:08;100591.55;;;14.84;100.00
24336;BME280;33098;52.400;16.880;2022-10-16T02:09:38;100588.26;;;14.87;100.00
24336;BME280;33098;52.400;16.880;2022-10-16T02:12:23;100587.27;;;14.88;100.00
24336;BME280;33098;52.400;16.880;2022-10-16T02:14:51;100591.43;;;14.91;100.00
24336;BME280;33098;52.400;16.880;2022-10-16T02:17:20;100599.85;;;14.97;100.00
24336;BME280;33098;52.400;16.880;2022-10-16T02:19:54;100604.73;;;14.96;100.00
24336;BME280;33098;52.400;16.880;2022-10-16T02:22:27;100607.31;;;14.95;100.00
24336;BME280;33098;52.400;16.880;2022-10-16T02:28:09;100603.45;;;15.12;100.00
24336;BME280;33098;52.400;16.880;2022-10-16T02:30:52;100598.86;;;15.16;100.00
24336;BME280;33098;52.400;16.880;2022-10-16T02:33:25;100594.86;;;15.21;100.00
24336;BME280;33098;52.400;16.880;2022-10-16T02:35:54;100593.84;;;15.23;100.00
24336;BME280;33098;52.400;16.880;2022-10-16T02:38:23;100593.91;;;15.24;100.00
24336;BME280;33098;52.400;16.880;2022-10-16T02:40:50;100595.70;;;15.22;100.00
24336;BME280;33098;52.400;16.880;2022-10-16T02:43:18;100599.59;;;15.22;100.00
24336;BME280;33098;52.400;16.880;2022-10-16T02:45:50;100596.86;;;15.17;100.00
24336;BME280;33098;52.400;16.880;2022-10-16T02:48:19;100602.28;;;15.14;100.00
24336;BME280;33098;52.400;16.880;2022-10-16T02:50:45;100601.37;;;15.13;100.00
24336;BME280;33098;52.400;16.880;2022-10-16T02:53:13;100598.98;;;15.13;100.00
24336;BME280;33098;52.400;16.880;2022-10-16T02:55:40;100600.09;;;15.13;100.00
24336;BME280;33098;52.400;16.880;2022-10-16T02:58:08;100601.91;;;15.16;100.00
24336;BME280;33098;52.400;16.880;2022-10-16T03:00:35;100606.14;;;15.17;100.00
24336;BME280;33098;52.400;16.880;2022-10-16T03:03:03;100609.20;;;15.13;100.00
24336;BME280;33098;52.400;16.880;2022-10-16T03:05:30;100606.17;;;15.15;100.00
24336;BME280;33098;52.400;16.880;2022-10-16T03:07:57;100612.44;;;15.17;100.00
24336;BME280;33098;52.400;16.880;2022-10-16T03:10:27;100609.89;;;15.17;100.00
24336;BME280;33098;52.400;16.880;2022-10-16T03:12:54;100614.02;;;15.15;100.00
24336;BME280;33098;52.400;16.880;2022-10-16T03:15:21;100609.94;;;15.13;100.00
24336;BME280;33098;52.400;16.880;2022-10-16T03:17:50;100608.19;;;15.11;100.00
24336;BME280;33098;52.400;16.880;2022-10-16T03:20:19;100603.69;;;15.07;100.00
24336;BME280;33098;52.400;16.880;2022-10-16T03:22:45;100600.20;;;15.10;100.00
24336;BME280;33098;52.400;16.880;2022-10-16T03:25:12;100604.62;;;15.14;100.00
24336;BME280;33098;52.400;16.880;2022-10-16T03:27:39;100606.17;;;15.15;100.00
24336;BME280;33098;52.400;16.880;2022-10-16T03:30:10;100608.65;;;15.15;100.00
24336;BME280;33098;52.400;16.880;2022-10-16T03:32:37;100617.21;;;15.13;100.00
24336;BME280;33098;52.400;16.880;2022-10-16T03:35:05;100615.54;;;15.09;100.00
24336;BME280;33098;52.400;16.880;2022-10-16T03:37:32;100620.38;;;15.03;100.00
24336;BME280;33098;52.400;16.880;2022-10-16T03:39:59;100623.33;;;15.02;100.00
24336;BME280;33098;52.400;16.880;2022-10-16T03:42:26;100625.70;;;15.05;100.00
24336;BME280;33098;52.400;16.880;2022-10-16T03:44:57;100622.92;;;15.04;100.00
24336;BME280;33098;52.400;16.880;2022-10-16T03:47:27;100621.73;;;15.05;100.00
24336;BME280;33098;52.400;16.880;2022-10-16T03:49:57;100628.78;;;15.07;100.00
24336;BME280;33098;52.400;16.880;2022-10-16T03:52:24;100635.78;;;15.08;100.00
24336;BME280;33098;52.400;16.880;2022-10-16T03:54:51;100634.31;;;15.04;100.00
24336;BME280;33098;52.400;16.880;2022-10-16T03:57:18;100639.64;;;15.05;100.00
24336;BME280;33098;52.400;16.880;2022-10-16T03:59:45;100642.34;;;15.03;100.00
24336;BME280;33098;52.400;16.880;2022-10-16T04:02:13;100643.20;;;15.05;100.00
24336;BME280;33098;52.400;16.880;2022-10-16T04:04:40;100644.73;;;15.10;100.00
24336;BME280;33098;52.400;16.880;2022-10-16T04:07:07;100648.04;;;15.14;100.00
24336;BME280;33098;52.400;16.880;2022-10-16T04:09:34;100648.37;;;15.17;100.00
24336;BME280;33098;52.400;16.880;2022-10-16T04:12:00;100652.11;;;15.19;100.00
24336;BME280;33098;52.400;16.880;2022-10-16T04:14:27;100649.90;;;15.21;100.00
24336;BME280;33098;52.400;16.880;2022-10-16T04:16:57;100651.66;;;15.22;100.00
24336;BME280;33098;52.400;16.880;2022-10-16T04:19:26;100654.22;;;15.21;100.00
24336;BME280;33098;52.400;16.880;2022-10-16T04:21:53;100652.58;;;15.24;100.00
24336;BME280;33098;52.400;16.880;2022-10-16T04:24:20;100658.83;;;15.25;100.00
24336;BME280;33098;52.400;16.880;2022-10-16T04:26:50;100661.26;;;15.28;100.00
24336;BME280;33098;52.400;16.880;2022-10-16T04:29:19;100662.28;;;15.34;100.00
24336;BME280;33098;52.400;16.880;2022-10-16T04:31:51;100666.29;;;15.35;100.00
24336;BME280;33098;52.400;16.880;2022-10-16T04:34:18;100668.35;;;15.34;100.00
24336;BME280;33098;52.400;16.880;2022-10-16T04:36:50;100671.85;;;15.33;100.00
24336;BME280;33098;52.400;16.880;2022-10-16T04:39:18;100674.06;;;15.32;100.00
24336;BME280;33098;52.400;16.880;2022-10-16T04:41:48;100681.90;;;15.37;100.00
24336;BME280;33098;52.400;16.880;2022-10-16T04:44:18;100680.07;;;15.35;100.00
24336;BME280;33098;52.400;16.880;2022-10-16T04:46:50;100681.34;;;15.35;100.00
24336;BME280;33098;52.400;16.880;2022-10-16T04:49:17;100682.41;;;15.41;100.00
24336;BME280;33098;52.400;16.880;2022-10-16T04:51:45;100681.76;;;15.44;100.00
24336;BME280;33098;52.400;16.880;2022-10-16T04:54:14;100681.08;;;15.47;100.00
24336;BME280;33098;52.400;16.880;2022-10-16T04:56:43;100684.17;;;15.54;100.00
24336;BME280;33098;52.400;16.880;2022-10-16T04:59:14;100685.14;;;15.53;100.00
24336;BME280;33098;52.400;16.880;2022-10-16T05:01:50;100686.91;;;15.49;100.00
24336;BME280;33098;52.400;16.880;2022-10-16T05:04:16;100685.88;;;15.47;100.00
24336;BME280;33098;52.400;16.880;2022-10-16T05:06:43;100682.46;;;15.53;100.00
24336;BME280;33098;52.400;16.880;2022-10-16T05:09:10;100679.38;;;15.60;100.00
24336;BME280;33098;52.400;16.880;2022-10-16T05:11:37;100675.37;;;15.58;100.00
24336;BME280;33098;52.400;16.880;2022-10-16T05:14:04;100672.31;;;15.55;100.00
24336;BME280;33098;52.400;16.880;2022-10-16T05:16:30;100681.84;;;15.56;100.00
24336;BME280;33098;52.400;16.880;2022-10-16T05:18:57;100688.02;;;15.49;100.00
24336;BME280;33098;52.400;16.880;2022-10-16T05:21:24;100694.71;;;15.47;100.00
24336;BME280;33098;52.400;16.880;2022-10-16T05:23:53;100699.05;;;15.44;100.00
24336;BME280;33098;52.400;16.880;2022-10-16T05:26:21;100703.41;;;15.45;100.00
24336;BME280;33098;52.400;16.880;2022-10-16T05:28:49;100706.98;;;15.46;100.00
24336;BME280;33098;52.400;16.880;2022-10-16T05:31:16;100701.42;;;15.47;100.00
24336;BME280;33098;52.400;16.880;2022-10-16T05:33:43;100697.45;;;15.54;100.00
24336;BME280;33098;52.400;16.880;2022-10-16T05:36:11;100693.45;;;15.54;100.00
24336;BME280;33098;52.400;16.880;2022-10-16T05:38:39;100694.52;;;15.47;100.00
24336;BME280;33098;52.400;16.880;2022-10-16T05:41:06;100699.14;;;15.49;100.00
24336;BME280;33098;52.400;16.880;2022-10-16T05:43:33;100700.40;;;15.43;100.00
24336;BME280;33098;52.400;16.880;2022-10-16T05:46:05;100699.57;;;15.39;100.00
24336;BME280;33098;52.400;16.880;2022-10-16T05:48:32;100699.95;;;15.40;100.00
24336;BME280;33098;52.400;16.880;2022-10-16T05:51:01;100699.33;;;15.40;100.00
24336;BME280;33098;52.400;16.880;2022-10-16T05:53:32;100702.99;;;15.44;100.00
24336;BME280;33098;52.400;16.880;2022-10-16T05:55:59;100700.98;;;15.44;100.00
24336;BME280;33098;52.400;16.880;2022-10-16T05:58:31;100697.69;;;15.42;100.00
24336;BME280;33098;52.400;16.880;2022-10-16T06:01:04;100709.37;;;15.41;100.00
24336;BME280;33098;52.400;16.880;2022-10-16T06:03:31;100714.48;;;15.36;100.00
24336;BME280;33098;52.400;16.880;2022-10-16T06:05:57;100716.19;;;15.33;100.00
24336;BME280;33098;52.400;16.880;2022-10-16T06:08:27;100713.58;;;15.34;100.00
24336;BME280;33098;52.400;16.880;2022-10-16T06:11:06;100712.48;;;15.39;100.00
24336;BME280;33098;52.400;16.880;2022-10-16T06:13:35;100713.73;;;15.39;100.00
24336;BME280;33098;52.400;16.880;2022-10-16T06:16:03;100715.27;;;15.37;100.00
24336;BME280;33098;52.400;16.880;2022-10-16T06:18:31;100715.57;;;15.30;100.00
24336;BME280;33098;52.400;16.880;2022-10-16T06:20:58;100720.70;;;15.29;100.00
24336;BME280;33098;52.400;16.880;2022-10-16T06:23:28;100723.49;;;15.32;100.00
24336;BME280;33098;52.400;16.880;2022-10-16T06:26:10;100722.77;;;15.30;100.00
24336;BME280;33098;52.400;16.880;2022-10-16T06:28:41;100723.98;;;15.34;100.00
24336;BME280;33098;52.400;16.880;2022-10-16T06:31:09;100730.30;;;15.41;100.00
24336;BME280;33098;52.400;16.880;2022-10-16T06:33:37;100726.09;;;15.42;100.00
24336;BME280;33098;52.400;16.880;2022-10-16T06:36:16;100730.81;;;15.43;100.00
24336;BME280;33098;52.400;16.880;2022-10-16T06:38:43;100737.98;;;15.45;100.00
24336;BME280;33098;52.400;16.880;2022-10-16T06:41:16;100738.75;;;15.44;100.00
24336;BME280;33098;52.400;16.880;2022-10-16T06:43:44;100749.61;;;15.41;100.00
24336;BME280;33098;52.400;16.880;2022-10-16T06:46:17;100753.61;;;15.38;100.00
24336;BME280;33098;52.400;16.880;2022-10-16T06:48:44;100761.18;;;15.45;100.00
24336;BME280;33098;52.400;16.880;2022-10-16T06:51:13;100772.79;;;15.49;100.00
24336;BME280;33098;52.400;16.880;2022-10-16T06:53:46;100773.34;;;15.57;100.00
24336;BME280;33098;52.400;16.880;2022-10-16T06:56:21;100778.05;;;15.66;100.00
24336;BME280;33098;52.400;16.880;2022-10-16T06:58:48;100786.55;;;15.71;100.00
24336;BME280;33098;52.400;16.880;2022-10-16T07:01:19;100791.94;;;15.70;100.00
24336;BME280;33098;52.400;16.880;2022-10-16T07:03:46;100792.45;;;15.76;100.00
24336;BME280;33098;52.400;16.880;2022-10-16T07:06:16;100792.52;;;15.85;100.00
24336;BME280;33098;52.400;16.880;2022-10-16T07:08:46;100799.68;;;15.89;100.00
24336;BME280;33098;52.400;16.880;2022-10-16T07:11:16;100801.30;;;15.93;100.00
24336;BME280;33098;52.400;16.880;2022-10-16T07:13:44;100802.55;;;15.97;100.00
24336;BME280;33098;52.400;16.880;2022-10-16T07:16:14;100803.80;;;16.02;100.00
24336;BME280;33098;52.400;16.880;2022-10-16T07:18:46;100804.70;;;16.04;100.00
24336;BME280;33098;52.400;16.880;2022-10-16T07:21:18;100805.13;;;16.05;100.00
24336;BME280;33098;52.400;16.880;2022-10-16T07:23:49;100804.95;;;16.14;100.00
24336;BME280;33098;52.400;16.880;2022-10-16T07:26:17;100802.54;;;16.21;100.00
24336;BME280;33098;52.400;16.880;2022-10-16T07:28:44;100802.92;;;16.28;100.00
24336;BME280;33098;52.400;16.880;2022-10-16T07:31:13;100794.86;;;16.37;100.00
24336;BME280;33098;52.400;16.880;2022-10-16T07:33:43;100795.48;;;16.44;100.00
24336;BME280;33098;52.400;16.880;2022-10-16T07:36:12;100797.90;;;16.43;100.00
24336;BME280;33098;52.400;16.880;2022-10-16T07:38:38;100793.98;;;16.44;100.00
24336;BME280;33098;52.400;16.880;2022-10-16T07:41:07;100791.59;;;16.47;100.00
24336;BME280;33098;52.400;16.880;2022-10-16T07:43:35;100791.55;;;16.46;100.00
24336;BME280;33098;52.400;16.880;2022-10-16T07:46:06;100792.11;;;16.47;100.00
24336;BME280;33098;52.400;16.880;2022-10-16T07:48:34;100792.88;;;16.50;100.00
24336;BME280;33098;52.400;16.880;2022-10-16T07:51:03;100796.81;;;16.54;100.00
24336;BME280;33098;52.400;16.880;2022-10-16T07:53:33;100798.71;;;16.53;100.00
24336;BME280;33098;52.400;16.880;2022-10-16T07:56:05;100807.62;;;16.54;100.00
24336;BME280;33098;52.400;16.880;2022-10-16T07:58:34;100811.13;;;16.55;100.00
24336;BME280;33098;52.400;16.880;2022-10-16T08:01:05;100818.23;;;16.59;100.00
24336;BME280;33098;52.400;16.880;2022-10-16T08:03:32;100823.04;;;16.63;100.00
24336;BME280;33098;52.400;16.880;2022-10-16T08:06:00;100831.48;;;16.59;100.00
24336;BME280;33098;52.400;16.880;2022-10-16T08:08:28;100831.75;;;16.54;100.00
24336;BME280;33098;52.400;16.880;2022-10-16T08:10:55;100837.34;;;16.59;100.00
24336;BME280;33098;52.400;16.880;2022-10-16T08:13:22;100827.52;;;16.66;100.00
24336;BME280;33098;52.400;16.880;2022-10-16T08:15:48;100827.95;;;16.71;100.00
24336;BME280;33098;52.400;16.880;2022-10-16T08:18:17;100828.80;;;16.75;100.00
24336;BME280;33098;52.400;16.880;2022-10-16T08:20:43;100830.06;;;16.82;100.00
24336;BME280;33098;52.400;16.880;2022-10-16T08:23:12;100831.16;;;16.90;100.00
24336;BME280;33098;52.400;16.880;2022-10-16T08:25:40;100837.03;;;16.94;100.00
24336;BME280;33098;52.400;16.880;2022-10-16T08:28:09;100835.52;;;16.96;100.00
24336;BME280;33098;52.400;16.880;2022-10-16T08:30:40;100834.09;;;17.02;100.00
24336;BME280;33098;52.400;16.880;2022-10-16T08:33:07;100834.64;;;17.07;100.00
24336;BME280;33098;52.400;16.880;2022-10-16T08:35:33;100835.84;;;17.13;100.00
24336;BME280;33098;52.400;16.880;2022-10-16T08:38:03;100840.77;;;17.18;100.00
24336;BME280;33098;52.400;16.880;2022-10-16T08:40:32;100847.48;;;17.15;100.00
24336;BME280;33098;52.400;16.880;2022-10-16T08:43:24;100842.16;;;17.12;100.00
24336;BME280;33098;52.400;16.880;2022-10-16T08:46:25;100839.66;;;17.16;100.00
24336;BME280;33098;52.400;16.880;2022-10-16T08:48:58;100841.20;;;17.23;100.00
24336;BME280;33098;52.400;16.880;2022-10-16T08:51:36;100848.17;;;17.24;100.00
24336;BME280;33098;52.400;16.880;2022-10-16T08:54:05;100856.20;;;17.23;100.00
24336;BME280;33098;52.400;16.880;2022-10-16T08:56:32;100855.98;;;17.27;100.00
24336;BME280;33098;52.400;16.880;2022-10-16T08:59:00;100855.40;;;17.32;100.00
24336;BME280;33098;52.400;16.880;2022-10-16T09:01:40;100853.64;;;17.38;100.00
24336;BME280;33098;52.400;16.880;2022-10-16T09:10:33;100871.95;;;17.59;100.00
24336;BME280;33098;52.400;16.880;2022-10-16T09:13:17;100869.79;;;17.66;100.00
24336;BME280;33098;52.400;16.880;2022-10-16T09:21:06;100867.80;;;17.75;100.00
24336;BME280;33098;52.400;16.880;2022-10-16T09:23:37;100863.66;;;17.78;100.00
24336;BME280;33098;52.400;16.880;2022-10-16T09:26:05;100864.19;;;17.82;100.00
24336;BME280;33098;52.400;16.880;2022-10-16T09:28:36;100868.23;;;17.81;100.00
24336;BME280;33098;52.400;16.880;2022-10-16T09:31:02;100876.89;;;17.83;100.00
24336;BME280;33098;52.400;16.880;2022-10-16T09:33:34;100872.41;;;17.88;100.00
24336;BME280;33098;52.400;16.880;2022-10-16T09:36:04;100880.98;;;17.96;100.00
24336;BME280;33098;52.400;16.880;2022-10-16T09:38:34;100880.69;;;17.99;100.00
24336;BME280;33098;52.400;16.880;2022-10-16T09:41:22;100884.59;;;18.01;100.00
24336;BME280;33098;52.400;16.880;2022-10-16T09:43:56;100876.52;;;18.13;100.00
24336;BME280;33098;52.400;16.880;2022-10-16T09:46:36;100870.90;;;18.31;100.00
24336;BME280;33098;52.400;16.880;2022-10-16T09:49:26;100874.70;;;18.44;100.00
24336;BME280;33098;52.400;16.880;2022-10-16T09:52:05;100874.38;;;18.56;100.00
24336;BME280;33098;52.400;16.880;2022-10-16T09:54:33;100883.31;;;18.68;100.00
24336;BME280;33098;52.400;16.880;2022-10-16T09:57:10;100883.27;;;18.77;100.00
24336;BME280;33098;52.400;16.880;2022-10-16T09:59:50;100886.09;;;18.82;99.95
24336;BME280;33098;52.400;16.880;2022-10-16T10:02:34;100887.13;;;18.80;99.42
24336;BME280;33098;52.400;16.880;2022-10-16T10:05:02;100888.20;;;18.80;99.33
24336;BME280;33098;52.400;16.880;2022-10-16T10:07:37;100888.20;;;18.80;99.12
24336;BME280;33098;52.400;16.880;2022-10-16T10:10:23;100883.95;;;18.81;98.93
24336;BME280;33098;52.400;16.880;2022-10-16T10:12:50;100886.73;;;18.84;98.93
24336;BME280;33098;52.400;16.880;2022-10-16T10:15:17;100886.70;;;18.89;98.63
24336;BME280;33098;52.400;16.880;2022-10-16T10:22:51;100898.45;;;18.95;98.43
24336;BME280;33098;52.400;16.880;2022-10-16T10:25:26;100898.77;;;18.98;98.10
24336;BME280;33098;52.400;16.880;2022-10-16T10:28:07;100896.56;;;19.03;97.87
24336;BME280;33098;52.400;16.880;2022-10-16T10:33:43;100887.61;;;19.16;97.76
24336;BME280;33098;52.400;16.880;2022-10-16T10:38:51;100886.30;;;19.22;96.81
24336;BME280;33098;52.400;16.880;2022-10-16T10:41:36;100886.40;;;19.24;96.65
24336;BME280;33098;52.400;16.880;2022-10-16T10:44:22;100880.95;;;19.26;96.27
24336;BME280;33098;52.400;16.880;2022-10-16T10:57:57;100896.03;;;19.31;95.11
24336;BME280;33098;52.400;16.880;2022-10-16T11:00:31;100895.19;;;19.37;95.25
24336;BME280;33098;52.400;16.880;2022-10-16T11:08:26;100880.77;;;19.34;94.75
24336;BME280;33098;52.400;16.880;2022-10-16T11:11:02;100885.84;;;19.33;94.60
24336;BME280;33098;52.400;16.880;2022-10-16T11:13:56;100886.38;;;19.32;94.40
24336;BME280;33098;52.400;16.880;2022-10-16T11:16:30;100885.55;;;19.40;94.79
24336;BME280;33098;52.400;16.880;2022-10-16T11:22:16;100886.88;;;19.72;95.00
24336;BME280;33098;52.400;16.880;2022-10-16T11:27:44;100873.30;;;19.96;94.21
24336;BME280;33098;52.400;16.880;2022-10-16T11:41:31;100867.52;;;20.43;90.35
24336;BME280;33098;52.400;16.880;2022-10-16T11:44:12;100879.07;;;20.51;89.61
24336;BME280;33098;52.400;16.880;2022-10-16T11:46:50;100880.90;;;20.57;88.84
24336;BME280;33098;52.400;16.880;2022-10-16T11:49:23;100880.83;;;20.65;88.84
24336;BME280;33098;52.400;16.880;2022-10-16T11:52:22;100882.35;;;20.73;88.70
24336;BME280;33098;52.400;16.880;2022-10-16T11:57:47;100887.73;;;20.80;87.11
24336;BME280;33098;52.400;16.880;2022-10-16T12:00:40;100893.99;;;20.79;86.70
24336;BME280;33098;52.400;16.880;2022-10-16T12:09:34;100897.54;;;20.69;85.83
24336;BME280;33098;52.400;16.880;2022-10-16T12:12:05;100890.91;;;20.72;85.88
24336;BME280;33098;52.400;16.880;2022-10-16T12:15:15;100890.45;;;20.74;85.93
24336;BME280;33098;52.400;16.880;2022-10-16T12:17:44;100895.73;;;20.76;84.91
24336;BME280;33098;52.400;16.880;2022-10-16T12:22:48;100895.14;;;20.68;84.34
24336;BME280;33098;52.400;16.880;2022-10-16T12:25:21;100893.55;;;20.58;83.58
24336;BME280;33098;52.400;16.880;2022-10-16T12:27:57;100894.70;;;20.53;83.57
24336;BME280;33098;52.400;16.880;2022-10-16T12:30:27;100895.15;;;20.55;84.08
24336;BME280;33098;52.400;16.880;2022-10-16T12:32:57;100904.06;;;20.59;83.72
24336;BME280;33098;52.400;16.880;2022-10-16T12:35:32;100901.14;;;20.63;83.63
24336;BME280;33098;52.400;16.880;2022-10-16T12:38:18;100901.88;;;20.59;82.20
24336;BME280;33098;52.400;16.880;2022-10-16T12:41:24;100900.89;;;20.59;83.04
24336;BME280;33098;52.400;16.880;2022-10-16T12:43:51;100901.79;;;20.65;82.95
24336;BME280;33098;52.400;16.880;2022-10-16T12:48:44;100907.02;;;20.73;80.09
24336;BME280;33098;52.400;16.880;2022-10-16T13:04:45;100923.09;;;21.45;77.77
24336;BME280;33098;52.400;16.880;2022-10-16T13:10:05;100924.33;;;21.44;77.92
24336;BME280;33098;52.400;16.880;2022-10-16T13:12:44;100932.09;;;21.37;77.54
24336;BME280;33098;52.400;16.880;2022-10-16T13:23:51;100928.52;;;21.02;77.56
24336;BME280;33098;52.400;16.880;2022-10-16T13:29:09;100939.59;;;21.07;78.08
24336;BME280;33098;52.400;16.880;2022-10-16T13:31:38;100939.73;;;21.10;77.40
24336;BME280;33098;52.400;16.880;2022-10-16T13:34:10;100939.71;;;21.11;77.42
24336;BME280;33098;52.400;16.880;2022-10-16T13:36:47;100935.63;;;21.06;77.02
24336;BME280;33098;52.400;16.880;2022-10-16T13:39:25;100945.32;;;21.01;77.11
24336;BME280;33098;52.400;16.880;2022-10-16T13:42:10;100947.90;;;20.99;77.55
24336;BME280;33098;52.400;16.880;2022-10-16T13:44:43;100946.16;;;21.00;77.41
24336;BME280;33098;52.400;16.880;2022-10-16T13:47:26;100948.52;;;21.03;77.61
24336;BME280;33098;52.400;16.880;2022-10-16T13:50:04;100952.77;;;21.03;76.90
24336;BME280;33098;52.400;16.880;2022-10-16T13:52:31;100962.17;;;21.00;77.02
24336;BME280;33098;52.400;16.880;2022-10-16T13:54:59;100964.69;;;20.99;77.19
24336;BME280;33098;52.400;16.880;2022-10-16T13:57:28;100972.24;;;20.93;76.85
24336;BME280;33098;52.400;16.880;2022-10-16T13:59:58;100975.04;;;20.89;77.25
24336;BME280;33098;52.400;16.880;2022-10-16T14:04:53;100984.05;;;20.86;77.10
24336;BME280;33098;52.400;16.880;2022-10-16T14:07:26;100985.80;;;20.88;77.04
24336;BME280;33098;52.400;16.880;2022-10-16T14:09:54;100987.48;;;20.87;77.37
24336;BME280;33098;52.400;16.880;2022-10-16T14:12:25;100991.05;;;20.84;77.35
24336;BME280;33098;52.400;16.880;2022-10-16T14:14:54;100994.41;;;20.82;77.41
24336;BME280;33098;52.400;16.880;2022-10-16T14:17:30;100996.11;;;20.81;77.41
24336;BME280;33098;52.400;16.880;2022-10-16T14:20:00;100998.31;;;20.80;76.97
24336;BME280;33098;52.400;16.880;2022-10-16T14:22:38;100998.80;;;20.73;77.04
24336;BME280;33098;52.400;16.880;2022-10-16T14:30:34;100993.56;;;20.64;77.77
24336;BME280;33098;52.400;16.880;2022-10-16T14:33:06;100995.77;;;20.62;77.98
24336;BME280;33098;52.400;16.880;2022-10-16T14:35:46;100992.59;;;20.61;78.09
24336;BME280;33098;52.400;16.880;2022-10-16T14:38:20;101001.14;;;20.57;78.02
24336;BME280;33098;52.400;16.880;2022-10-16T14:40:48;101011.00;;;20.56;78.28
24336;BME280;33098;52.400;16.880;2022-10-16T14:43:22;101017.56;;;20.52;78.37
24336;BME280;33098;52.400;16.880;2022-10-16T14:45:56;101020.34;;;20.50;78.66
24336;BME280;33098;52.400;16.880;2022-10-16T14:48:24;101018.52;;;20.50;78.77
24336;BME280;33098;52.400;16.880;2022-10-16T14:50:54;101020.10;;;20.52;78.63
24336;BME280;33098;52.400;16.880;2022-10-16T14:53:22;101019.52;;;20.48;78.29
24336;BME280;33098;52.400;16.880;2022-10-16T14:55:52;101020.50;;;20.42;78.42
24336;BME280;33098;52.400;16.880;2022-10-16T14:58:21;101024.72;;;20.41;78.52
24336;BME280;33098;52.400;16.880;2022-10-16T15:00:50;101026.92;;;20.36;78.21